Bicycle Lake Army Air Field
KBYS : now visible

Airfield :











YOU CAN JOIN US ON...

 
LOGIN :

Register | Disclaimer

   EN    FR    IT 

 









Legend :    VFR   Marginal VFR   IFR   Intensive IFR   Very Intensive IFR
Visi :
Ceiling :
>= 8 km
>= 3000ft
5 to 8 km
1000 to 3000 ft
1500m to 5 km
500 to 1000 ft
800 to 1500m
200 to 500 ft
< 800m
< 200 ft
Symbols :   Thunderstorms  Fog  Heavy snow  Heavy precipitations  Wind > 20 kt






- Airport Elevation : 2350 ft


KBYS - Bicycle Lake Army Air Field

CURRENT METAR :
  • 130358Z AUTO 24017KT 10SM CLR 37/02 A2982 RMK AO2 SLP060 T03700017 $

EXPIRED METARs :
  • 130258Z AUTO 23017KT 10SM CLR 39/02 A2980 RMK AO2 SLP053 T03940022 55001 $
  • 130158Z AUTO 23017KT 10SM CLR 41/02 A2979 RMK AO2 SLP049 T04110020 $

Expired Forecast.
KZLA FIR / North America



MET'MAP, your aeronautical weather chart ! - Copyright ORBIFLY December 2007 - Disclaimer

ORBIFLY MET'MAP TEAM :

Programming & Development : Alexandra Zaïnal
Concept & original design : Baudouin d'Aumeries
Assistance for programming : Marc-Olivier Méhu
Technical & hardware support : Manuel Goepfert

Contact : metmap@orbifly.com




SOURCES & CREDITS :

   NOAA       Earth
Advisory